Time;durP1;ratioP1;P1;durP2;ratioP2;P2;SDS_P1;SDS_P2;PMS_P1;PMS_P2;Temp;Humidity;BMP_temperature;BMP_pressure;BME280_temperature;BME280_humidity;BME280_pressure;Samples;Min_cycle;Max_cycle;Signal;HPM_P1;HPM_P2
2024/02/21 00:01:16;;;;;;;15.70;10.10;;;;;;;4.76;100.00;99643.18;109108;1257;59276;-76
2024/02/21 00:03:43;;;;;;;17.20;10.20;;;;;;;4.74;100.00;99638.29;109132;1256;59154;-74
2024/02/21 00:06:09;;;;;;;27.40;13.30;;;;;;;4.74;100.00;99639.00;109109;1257;66090;-76
2024/02/21 00:08:36;;;;;;;26.60;16.00;;;;;;;4.73;100.00;99639.39;109100;1256;61202;-75
2024/02/21 00:11:03;;;;;;;23.50;13.70;;;;;;;4.73;100.00;99635.88;109078;1258;65045;-77
2024/02/21 00:13:30;;;;;;;17.00;10.20;;;;;;;4.73;100.00;99636.41;108969;1256;59382;-75
2024/02/21 00:15:56;;;;;;;15.80;10.60;;;;;;;4.72;100.00;99632.73;109027;1257;59007;-75
2024/02/21 00:18:23;;;;;;;17.20;10.10;;;;;;;4.71;100.00;99631.02;109095;1256;66089;-76
2024/02/21 00:20:50;;;;;;;19.60;11.70;;;;;;;4.70;100.00;99633.00;109087;1257;61084;-75
2024/02/21 00:23:16;;;;;;;18.10;11.60;;;;;;;4.69;100.00;99635.15;109069;1256;63995;-76
2024/02/21 00:25:43;;;;;;;24.30;13.30;;;;;;;4.69;100.00;99632.69;109096;1256;59541;-76
2024/02/21 00:28:10;;;;;;;21.40;12.60;;;;;;;4.69;100.00;99632.50;109111;1256;58933;-75
2024/02/21 00:30:38;;;;;;;23.00;12.70;;;;;;;4.69;100.00;99632.16;109122;1257;66016;-75
2024/02/21 00:33:05;;;;;;;24.60;14.70;;;;;;;4.68;100.00;99632.18;109154;1256;59662;-76
2024/02/21 00:35:31;;;;;;;23.40;15.00;;;;;;;4.69;100.00;99630.20;109098;1256;64757;-79
2024/02/21 00:37:59;;;;;;;24.70;15.70;;;;;;;4.69;100.00;99626.85;109082;1257;59092;-76
2024/02/21 00:40:26;;;;;;;26.30;17.30;;;;;;;4.68;100.00;99621.60;109096;1257;58974;-74
2024/02/21 00:42:52;;;;;;;26.50;18.10;;;;;;;4.68;100.00;99620.37;109145;1257;66173;-76
2024/02/21 00:45:19;;;;;;;28.90;18.70;;;;;;;4.69;100.00;99615.25;109104;1257;61404;-75
2024/02/21 00:47:46;;;;;;;28.70;18.10;;;;;;;4.70;100.00;99600.08;109083;1256;65028;-75
2024/02/21 00:50:12;;;;;;;28.70;17.30;;;;;;;4.70;100.00;99594.77;109073;1256;58987;-75
2024/02/21 00:52:39;;;;;;;28.70;19.70;;;;;;;4.70;100.00;99597.08;109105;1256;59314;-75
2024/02/21 00:55:06;;;;;;;31.30;21.10;;;;;;;4.70;100.00;99596.19;109047;1257;67093;-76
2024/02/21 00:57:33;;;;;;;34.00;21.40;;;;;;;4.70;100.00;99598.33;109041;1256;60023;-76
2024/02/21 00:59:59;;;;;;;34.30;23.40;;;;;;;4.68;100.00;99594.33;109106;1256;65054;-76
2024/02/21 01:02:26;;;;;;;35.10;23.30;;;;;;;4.67;100.00;99593.84;109088;1256;59067;-76
2024/02/21 01:04:53;;;;;;;33.50;24.60;;;;;;;4.68;100.00;99590.99;109120;1256;58960;-75
2024/02/21 01:07:19;;;;;;;37.60;25.90;;;;;;;4.68;100.00;99582.36;109156;1256;66042;-75
2024/02/21 01:09:46;;;;;;;34.00;24.00;;;;;;;4.70;100.00;99590.05;109106;1256;60194;-76
2024/02/21 01:12:13;;;;;;;37.30;24.70;;;;;;;4.69;100.00;99583.55;109050;1257;65315;-76
2024/02/21 01:14:39;;;;;;;40.20;24.40;;;;;;;4.70;100.00;99577.55;109050;1256;59838;-75
2024/02/21 01:17:06;;;;;;;39.00;23.50;;;;;;;4.69;100.00;99573.53;109095;1256;59046;-77
2024/02/21 01:19:32;;;;;;;40.40;23.50;;;;;;;4.68;100.00;99575.31;109111;1256;65982;-75
2024/02/21 01:21:59;;;;;;;35.20;25.40;;;;;;;4.67;100.00;99574.98;108933;1256;60177;-75
2024/02/21 01:24:26;;;;;;;39.60;22.70;;;;;;;4.66;100.00;99570.63;109113;1256;65205;-76
2024/02/21 01:26:52;;;;;;;32.80;22.20;;;;;;;4.65;100.00;99567.69;109068;1256;59024;-75
2024/02/21 01:29:19;;;;;;;33.80;22.80;;;;;;;4.64;100.00;99571.77;109058;1256;59024;-76
2024/02/21 01:31:47;;;;;;;37.20;24.60;;;;;;;4.63;100.00;99577.59;109096;1256;65986;-76
2024/02/21 01:34:13;;;;;;;35.20;21.70;;;;;;;4.64;100.00;99572.84;109117;1256;60122;-76
2024/02/21 01:36:41;;;;;;;33.60;20.40;;;;;;;4.64;100.00;99568.08;109083;1256;65063;-75
2024/02/21 01:39:08;;;;;;;31.90;21.20;;;;;;;4.65;100.00;99566.09;109071;1256;59019;-76
2024/02/21 01:41:34;;;;;;;33.90;21.40;;;;;;;4.66;100.00;99567.29;109108;1256;59176;-77
2024/02/21 01:44:01;;;;;;;33.40;22.10;;;;;;;4.67;100.00;99563.39;109077;1256;65665;-76
2024/02/21 01:46:30;;;;;;;39.80;22.00;;;;;;;4.67;100.00;99559.34;109124;1256;60113;-76
2024/02/21 01:48:57;;;;;;;33.30;21.40;;;;;;;4.67;100.00;99556.02;109091;1256;65199;-74
2024/02/21 01:51:24;;;;;;;32.60;21.30;;;;;;;4.67;100.00;99556.89;109002;1256;58994;-75
2024/02/21 01:53:53;;;;;;;35.70;21.80;;;;;;;4.67;100.00;99555.66;109100;1256;58987;-76
2024/02/21 01:56:19;;;;;;;35.50;21.80;;;;;;;4.66;100.00;99551.63;109135;1256;67015;-75
2024/02/21 01:58:48;;;;;;;32.20;21.10;;;;;;;4.66;100.00;99548.45;109112;1256;60088;-76
2024/02/21 02:01:15;;;;;;;35.70;19.90;;;;;;;4.66;100.00;99551.63;109107;1256;65061;-76
2024/02/21 02:03:45;;;;;;;34.40;18.60;;;;;;;4.65;100.00;99552.90;109071;1257;59094;-76
2024/02/21 02:06:12;;;;;;;30.00;17.30;;;;;;;4.63;100.00;99550.48;109096;1256;58882;-76
2024/02/21 02:08:39;;;;;;;26.00;14.30;;;;;;;4.63;100.00;99548.20;109011;1256;64762;-77
2024/02/21 02:11:06;;;;;;;30.70;15.40;;;;;;;4.62;100.00;99546.98;109157;1256;61367;-76
2024/02/21 02:13:33;;;;;;;25.60;14.40;;;;;;;4.62;100.00;99546.65;109095;1256;64122;-75
2024/02/21 02:16:00;;;;;;;23.80;15.10;;;;;;;4.61;100.00;99547.73;109101;1256;59055;-75
2024/02/21 02:18:26;;;;;;;28.80;14.00;;;;;;;4.61;100.00;99547.21;109142;1256;59096;-76
2024/02/21 02:20:53;;;;;;;23.60;14.50;;;;;;;4.63;100.00;99549.27;109117;1256;67051;-77
2024/02/21 02:23:29;;;;;;;25.20;13.80;;;;;;;4.63;100.00;99546.61;109017;1256;61090;-76
2024/02/21 02:25:56;;;;;;;30.90;15.10;;;;;;;4.64;100.00;99546.60;109108;1256;63750;-76
2024/02/21 02:28:23;;;;;;;31.40;17.50;;;;;;;4.65;100.00;99547.82;109096;1256;59006;-75
2024/02/21 02:30:50;;;;;;;24.10;14.30;;;;;;;4.65;100.00;99547.25;109109;1256;58991;-75
2024/02/21 02:33:17;;;;;;;23.00;13.90;;;;;;;4.65;100.00;99542.33;109101;1256;67067;-76
2024/02/21 02:35:44;;;;;;;25.00;14.60;;;;;;;4.64;100.00;99533.39;109136;1256;60183;-76
2024/02/21 02:38:12;;;;;;;22.50;13.20;;;;;;;4.62;100.00;99538.36;109097;1256;65237;-76
2024/02/21 02:40:42;;;;;;;24.00;13.10;;;;;;;4.62;100.00;99533.80;108940;1256;59148;-74
2024/02/21 02:43:09;;;;;;;27.60;12.10;;;;;;;4.62;100.00;99534.84;109104;1256;59038;-76
2024/02/21 02:45:36;;;;;;;26.70;13.40;;;;;;;4.62;100.00;99534.85;109038;1256;66286;-75
2024/02/21 02:48:03;;;;;;;25.50;13.80;;;;;;;4.62;100.00;99528.88;109141;1256;60068;-75
2024/02/21 02:50:30;;;;;;;21.90;13.40;;;;;;;4.62;100.00;99529.04;109089;1256;64730;-76
2024/02/21 02:52:56;;;;;;;22.00;11.80;;;;;;;4.63;100.00;99531.13;109138;1256;59214;-76
2024/02/21 02:55:23;;;;;;;21.80;12.60;;;;;;;4.62;100.00;99530.09;109180;1256;58847;-78
2024/02/21 02:57:50;;;;;;;17.80;12.70;;;;;;;4.62;100.00;99527.48;109212;1256;67068;-74
2024/02/21 03:00:36;;;;;;;20.20;12.60;;;;;;;4.61;100.00;99528.38;109186;1256;60295;-76
2024/02/21 03:03:05;;;;;;;21.80;13.60;;;;;;;4.61;100.00;99527.34;109130;1256;64113;-76
2024/02/21 03:05:32;;;;;;;24.40;14.00;;;;;;;4.61;100.00;99523.64;109074;1256;59063;-75
2024/02/21 03:07:59;;;;;;;24.50;14.90;;;;;;;4.60;100.00;99521.38;109107;1256;58892;-75
2024/02/21 03:10:25;;;;;;;26.90;14.40;;;;;;;4.60;100.00;99522.61;109146;1256;67299;-76
2024/02/21 03:12:53;;;;;;;25.80;13.70;;;;;;;4.59;100.00;99522.81;109089;1256;61095;-76
2024/02/21 03:15:20;;;;;;;21.90;12.40;;;;;;;4.58;100.00;99516.71;109093;1256;64048;-75
2024/02/21 03:17:47;;;;;;;22.50;14.10;;;;;;;4.55;100.00;99517.49;109065;1256;59023;-75
2024/02/21 03:20:14;;;;;;;23.80;14.30;;;;;;;4.52;100.00;99515.48;109115;1256;59255;-76
2024/02/21 03:22:41;;;;;;;24.00;15.00;;;;;;;4.49;100.00;99510.86;109111;1256;66435;-76
2024/02/21 03:25:10;;;;;;;24.90;14.40;;;;;;;4.45;100.00;99515.73;109136;1256;60206;-75
2024/02/21 03:27:38;;;;;;;25.30;15.00;;;;;;;4.41;100.00;99513.91;109068;1256;65041;-75
2024/02/21 03:30:05;;;;;;;24.80;16.60;;;;;;;4.38;100.00;99514.38;109070;1256;59796;-75
2024/02/21 03:32:35;;;;;;;27.90;16.50;;;;;;;4.36;100.00;99517.61;108893;1256;60059;-76
2024/02/21 03:35:02;;;;;;;30.20;17.90;;;;;;;4.35;100.00;99517.98;109094;1256;67816;-76
2024/02/21 03:37:29;;;;;;;30.50;17.20;;;;;;;4.36;100.00;99515.35;109038;1256;60476;-75
2024/02/21 03:39:55;;;;;;;28.00;17.30;;;;;;;4.36;100.00;99516.02;109046;1256;65321;-76
2024/02/21 03:42:22;;;;;;;26.20;16.30;;;;;;;4.37;100.00;99514.58;109076;1256;60018;-75
2024/02/21 03:44:49;;;;;;;23.10;15.40;;;;;;;4.38;100.00;99505.76;109045;1256;59879;-76
2024/02/21 03:47:15;;;;;;;26.50;16.10;;;;;;;4.38;100.00;99503.45;109108;1256;66788;-75
2024/02/21 03:49:42;;;;;;;24.10;15.30;;;;;;;4.39;100.00;99507.14;109091;1256;60232;-76
2024/02/21 03:52:10;;;;;;;28.70;15.80;;;;;;;4.38;100.00;99504.34;109050;1257;64063;-75
2024/02/21 03:54:37;;;;;;;23.70;14.30;;;;;;;4.37;100.00;99501.73;108992;1256;59865;-75
2024/02/21 03:57:05;;;;;;;23.10;13.60;;;;;;;4.36;100.00;99501.78;109075;1256;59845;-77
2024/02/21 03:59:31;;;;;;;23.60;15.10;;;;;;;4.34;100.00;99499.90;109069;1256;67944;-75
2024/02/21 04:01:59;;;;;;;20.80;14.80;;;;;;;4.34;100.00;99502.54;109068;1256;61499;-76
2024/02/21 04:04:25;;;;;;;22.90;15.10;;;;;;;4.34;100.00;99500.45;109119;1256;63859;-76
2024/02/21 04:06:52;;;;;;;24.40;13.80;;;;;;;4.33;100.00;99496.27;109047;1256;60187;-76
2024/02/21 04:09:19;;;;;;;20.70;12.00;;;;;;;4.32;100.00;99494.69;109095;1256;59719;-75
2024/02/21 04:11:45;;;;;;;20.60;12.40;;;;;;;4.33;100.00;99489.02;109076;1256;67798;-75
2024/02/21 04:14:12;;;;;;;24.50;16.50;;;;;;;4.33;100.00;99487.44;109114;1256;61270;-76
2024/02/21 04:16:39;;;;;;;25.80;17.00;;;;;;;4.33;100.00;99485.02;109095;1256;65053;-75
2024/02/21 04:19:06;;;;;;;26.60;18.10;;;;;;;4.32;100.00;99476.60;109085;1256;59876;-75
2024/02/21 04:21:32;;;;;;;21.70;16.70;;;;;;;4.32;100.00;99478.36;109086;1256;59755;-75
2024/02/21 04:23:59;;;;;;;22.00;15.60;;;;;;;4.31;100.00;99483.83;109101;1256;66823;-75
2024/02/21 04:26:26;;;;;;;22.00;14.80;;;;;;;4.28;100.00;99485.69;109109;1256;60861;-74
2024/02/21 04:28:53;;;;;;;24.50;14.70;;;;;;;4.27;100.00;99484.86;109071;1256;65053;-75
2024/02/21 04:31:19;;;;;;;23.60;14.50;;;;;;;4.27;100.00;99486.09;108908;1256;59940;-75
2024/02/21 04:33:46;;;;;;;23.60;14.20;;;;;;;4.27;100.00;99487.12;109090;1258;59788;-76
2024/02/21 04:36:13;;;;;;;25.10;13.60;;;;;;;4.29;100.00;99493.92;109078;1256;68236;-76
2024/02/21 04:38:40;;;;;;;22.80;13.70;;;;;;;4.30;100.00;99488.61;109086;1256;59837;-75
2024/02/21 04:41:07;;;;;;;23.90;13.20;;;;;;;4.31;100.00;99486.10;109078;1256;64052;-76
2024/02/21 04:43:34;;;;;;;26.80;14.30;;;;;;;4.33;100.00;99488.87;109074;1256;60099;-76
2024/02/21 04:46:01;;;;;;;29.10;18.50;;;;;;;4.34;100.00;99489.71;109085;1256;59814;-75
2024/02/21 04:48:28;;;;;;;24.00;17.10;;;;;;;4.35;100.00;99488.80;109075;1256;67660;-76
2024/02/21 04:50:54;;;;;;;25.00;16.70;;;;;;;4.37;100.00;99486.80;109150;1256;61495;-76
2024/02/21 04:53:21;;;;;;;26.30;18.10;;;;;;;4.38;100.00;99480.59;109057;1256;65081;-76
2024/02/21 04:55:48;;;;;;;28.40;17.80;;;;;;;4.40;100.00;99482.48;108952;1256;59814;-76
2024/02/21 04:58:14;;;;;;;22.70;15.30;;;;;;;4.40;100.00;99480.54;109083;1256;59903;-77
2024/02/21 05:00:41;;;;;;;23.90;17.10;;;;;;;4.39;100.00;99475.98;109081;1256;67878;-76
2024/02/21 05:03:08;;;;;;;24.60;17.10;;;;;;;4.37;100.00;99475.52;109122;1256;60270;-75
2024/02/21 05:05:35;;;;;;;25.80;17.30;;;;;;;4.34;100.00;99474.06;108949;1256;63991;-76
2024/02/21 05:08:02;;;;;;;23.90;16.90;;;;;;;4.30;100.00;99469.09;109051;1256;59815;-76
2024/02/21 05:10:28;;;;;;;23.90;15.20;;;;;;;4.25;100.00;99466.80;109031;1256;59845;-75
2024/02/21 05:12:55;;;;;;;29.80;18.30;;;;;;;4.18;100.00;99467.20;109089;1256;68125;-76
2024/02/21 05:15:22;;;;;;;28.30;18.70;;;;;;;4.09;100.00;99473.32;109080;1256;59923;-75
2024/02/21 05:17:48;;;;;;;30.30;19.00;;;;;;;3.99;100.00;99473.09;108924;1256;64558;-76
2024/02/21 05:20:15;;;;;;;27.80;19.40;;;;;;;3.91;100.00;99475.28;109090;1256;59813;-76
2024/02/21 05:22:42;;;;;;;25.80;18.60;;;;;;;3.86;100.00;99476.85;109015;1256;59893;-75
2024/02/21 05:25:09;;;;;;;33.30;21.90;;;;;;;3.82;100.00;99472.40;109151;1256;66841;-76
2024/02/21 05:27:36;;;;;;;32.90;23.70;;;;;;;3.78;100.00;99469.92;109103;1256;60171;-76
2024/02/21 05:30:06;;;;;;;28.50;19.90;;;;;;;3.73;100.00;99462.33;109065;1256;65162;-76
2024/02/21 05:32:33;;;;;;;35.30;21.00;;;;;;;3.69;100.00;99459.64;109074;1256;59818;-74
2024/02/21 05:34:59;;;;;;;32.20;23.30;;;;;;;3.64;100.00;99460.48;109172;1256;59810;-75
2024/02/21 05:37:26;;;;;;;36.80;25.70;;;;;;;3.60;100.00;99459.22;109238;1256;66777;-76
2024/02/21 05:39:53;;;;;;;39.20;29.60;;;;;;;3.56;100.00;99460.39;109160;1256;61032;-75
2024/02/21 05:42:20;;;;;;;40.20;28.40;;;;;;;3.52;100.00;99460.70;109096;1256;64383;-75
2024/02/21 05:44:46;;;;;;;38.30;27.30;;;;;;;3.49;100.00;99457.11;109073;1256;59841;-75
2024/02/21 05:47:15;;;;;;;42.40;28.90;;;;;;;3.46;100.00;99458.95;109089;1256;59870;-75
2024/02/21 05:49:41;;;;;;;34.90;27.60;;;;;;;3.46;100.00;99458.77;109158;1256;66902;-74
2024/02/21 05:52:08;;;;;;;42.10;28.80;;;;;;;3.47;100.00;99455.05;109085;1256;60783;-75
2024/02/21 05:54:37;;;;;;;40.00;29.60;;;;;;;3.49;100.00;99456.75;109086;1256;65042;-76
2024/02/21 05:57:04;;;;;;;40.20;29.50;;;;;;;3.51;100.00;99449.30;109089;1257;59768;-75
2024/02/21 05:59:30;;;;;;;37.20;31.10;;;;;;;3.52;100.00;99447.53;108978;1256;59840;-74
2024/02/21 06:01:57;;;;;;;53.00;39.60;;;;;;;3.53;100.00;99448.54;109131;1256;66838;-75
2024/02/21 06:04:24;;;;;;;62.50;45.70;;;;;;;3.57;100.00;99448.08;109102;1256;61138;-76
2024/02/21 06:06:51;;;;;;;55.20;38.30;;;;;;;3.61;100.00;99450.41;109082;1256;65157;-75
2024/02/21 06:09:17;;;;;;;83.90;56.90;;;;;;;3.67;100.00;99453.57;109071;1256;59910;-77
2024/02/21 06:11:46;;;;;;;112.70;80.90;;;;;;;3.75;100.00;99454.73;109107;1256;59856;-74
2024/02/21 06:14:12;;;;;;;95.00;66.20;;;;;;;3.86;100.00;99451.55;109127;1256;68082;-76
2024/02/21 06:16:39;;;;;;;64.30;47.70;;;;;;;3.99;100.00;99449.91;109097;1256;59926;-75
2024/02/21 06:19:06;;;;;;;56.60;41.50;;;;;;;4.12;100.00;99448.58;109094;1256;65110;-74
2024/02/21 06:21:32;;;;;;;57.90;38.90;;;;;;;4.27;100.00;99445.80;109078;1256;59862;-74
2024/02/21 06:23:59;;;;;;;50.60;38.90;;;;;;;4.37;100.00;99443.70;109075;1256;60124;-76
2024/02/21 06:26:26;;;;;;;49.30;35.20;;;;;;;4.47;100.00;99442.48;109105;1256;67843;-75
2024/02/21 06:28:52;;;;;;;44.70;33.50;;;;;;;4.60;100.00;99436.39;109100;1256;61359;-75
2024/02/21 06:31:19;;;;;;;46.90;36.90;;;;;;;4.75;100.00;99438.66;109076;1256;65133;-76
2024/02/21 06:33:46;;;;;;;40.40;32.80;;;;;;;4.91;100.00;99442.48;109099;1256;59827;-74
2024/02/21 06:36:13;;;;;;;41.20;31.70;;;;;;;5.05;100.00;99441.79;109103;1256;59778;-76
2024/02/21 06:38:39;;;;;;;38.70;29.20;;;;;;;5.22;100.00;99440.10;109105;1256;67785;-75
2024/02/21 06:41:06;;;;;;;36.20;29.80;;;;;;;5.39;100.00;99438.40;109116;1256;60603;-75
2024/02/21 06:43:32;;;;;;;38.30;27.90;;;;;;;5.53;100.00;99439.77;109085;1256;64133;-74
2024/02/21 06:45:59;;;;;;;38.40;27.50;;;;;;;5.67;100.00;99442.73;109094;1256;59874;-75
2024/02/21 06:48:26;;;;;;;37.20;26.60;;;;;;;5.79;100.00;99440.33;109108;1256;59787;-75
2024/02/21 06:50:52;;;;;;;35.00;26.70;;;;;;;5.86;100.00;99442.16;109104;1256;66818;-76
2024/02/21 06:53:19;;;;;;;33.60;25.50;;;;;;;5.88;100.00;99441.40;109082;1256;61331;-75
2024/02/21 06:55:45;;;;;;;37.20;25.60;;;;;;;5.91;100.00;99437.21;109115;1256;65139;-75
2024/02/21 06:58:13;;;;;;;33.70;23.60;;;;;;;5.96;100.00;99440.04;109018;1256;59935;-74
2024/02/21 07:00:40;;;;;;;30.00;23.90;;;;;;;6.01;100.00;99438.42;109090;1256;59864;-75
2024/02/21 07:03:07;;;;;;;36.90;25.40;;;;;;;6.09;100.00;99439.31;109081;1256;67862;-75
2024/02/21 07:05:33;;;;;;;36.40;27.40;;;;;;;6.17;100.00;99441.46;109101;1256;60058;-75
2024/02/21 07:08:00;;;;;;;35.20;26.10;;;;;;;6.22;100.00;99440.21;109096;1256;65035;-75
2024/02/21 07:10:28;;;;;;;34.70;21.00;;;;;;;6.26;100.00;99443.71;109089;1256;59801;-75
2024/02/21 07:12:55;;;;;;;30.40;17.20;;;;;;;6.30;100.00;99443.93;109114;1256;59775;-76
2024/02/21 07:15:22;;;;;;;29.30;17.50;;;;;;;6.30;100.00;99444.63;109118;1256;66907;-77
2024/02/21 07:17:48;;;;;;;32.30;18.80;;;;;;;6.30;100.00;99441.80;109130;1256;60656;-76
2024/02/21 07:20:15;;;;;;;27.70;17.90;;;;;;;6.31;100.00;99443.16;109103;1256;65087;-77
2024/02/21 07:22:41;;;;;;;28.00;18.10;;;;;;;6.33;100.00;99442.02;108960;1256;59860;-76
2024/02/21 07:25:08;;;;;;;29.70;18.20;;;;;;;6.35;100.00;99437.17;109107;1256;60061;-76
2024/02/21 07:27:35;;;;;;;29.40;15.90;;;;;;;6.38;100.00;99431.04;109096;1256;66788;-77
2024/02/21 07:30:02;;;;;;;27.70;16.80;;;;;;;6.40;100.00;99429.91;108951;1256;59911;-77
2024/02/21 07:32:29;;;;;;;21.50;14.40;;;;;;;6.43;100.00;99430.83;109139;1256;65042;-77
2024/02/21 07:34:55;;;;;;;21.80;14.20;;;;;;;6.46;100.00;99431.60;109110;1256;59823;-76
2024/02/21 07:37:22;;;;;;;21.70;12.30;;;;;;;6.47;100.00;99433.48;109148;1256;59651;-76
2024/02/21 07:39:49;;;;;;;23.30;12.90;;;;;;;6.45;100.00;99429.17;109169;1256;67979;-76
2024/02/21 07:42:15;;;;;;;14.00;11.30;;;;;;;6.41;100.00;99433.23;109112;1256;66849;-75
2024/02/21 07:44:42;;;;;;;16.10;11.70;;;;;;;6.39;100.00;99433.84;109067;1256;64102;-75
2024/02/21 07:47:09;;;;;;;15.90;10.50;;;;;;;6.33;100.00;99433.18;109083;1256;59785;-77
2024/02/21 07:49:44;;;;;;;20.10;11.40;;;;;;;6.29;100.00;99433.73;109077;1256;59903;-75
2024/02/21 07:52:11;;;;;;;16.80;11.20;;;;;;;6.23;100.00;99434.00;109106;1256;68054;-78
2024/02/21 07:54:37;;;;;;;17.90;9.30;;;;;;;6.20;100.00;99430.58;109091;1256;60957;-75
2024/02/21 07:57:04;;;;;;;14.70;10.60;;;;;;;6.21;100.00;99430.70;109080;1256;64221;-76
2024/02/21 07:59:31;;;;;;;14.40;10.00;;;;;;;6.24;100.00;99429.36;109079;1256;59788;-76
2024/02/21 08:01:58;;;;;;;16.60;10.40;;;;;;;6.28;100.00;99430.61;109114;1256;59952;-75
2024/02/21 08:04:25;;;;;;;15.40;10.20;;;;;;;6.33;100.00;99426.34;109116;1256;68752;-76
2024/02/21 08:06:53;;;;;;;17.90;11.00;;;;;;;6.42;100.00;99420.47;109084;1256;60058;-74
2024/02/21 08:09:21;;;;;;;13.30;9.80;;;;;;;6.54;100.00;99424.69;109076;1256;65049;-75
2024/02/21 08:11:47;;;;;;;17.30;10.80;;;;;;;6.66;100.00;99419.78;109116;1256;59766;-76
2024/02/21 08:14:15;;;;;;;16.80;9.50;;;;;;;6.79;100.00;99416.04;109136;1256;59830;-77
2024/02/21 08:16:42;;;;;;;19.30;9.80;;;;;;;6.88;100.00;99414.36;109107;1256;66513;-76
2024/02/21 08:19:10;;;;;;;15.70;8.90;;;;;;;6.94;100.00;99408.81;109097;1256;60995;-75
2024/02/21 08:21:37;;;;;;;23.10;12.10;;;;;;;6.99;100.00;99406.12;109147;1256;64825;-75
2024/02/21 08:24:04;;;;;;;17.40;9.10;;;;;;;7.05;100.00;99399.48;109007;1256;59816;-76
2024/02/21 08:26:31;;;;;;;16.80;7.80;;;;;;;7.11;100.00;99393.73;109193;1256;60171;-76
2024/02/21 08:29:00;;;;;;;14.50;7.50;;;;;;;7.15;100.00;99397.08;109124;1256;66853;-77
2024/02/21 08:31:34;;;;;;;13.70;7.70;;;;;;;7.23;100.00;99396.49;109098;1256;60226;-76
2024/02/21 08:34:04;;;;;;;11.00;6.50;;;;;;;7.34;100.00;99392.65;109096;1256;64188;-75
2024/02/21 08:36:32;;;;;;;20.90;6.90;;;;;;;7.43;100.00;99391.67;109090;1256;59964;-76
2024/02/21 08:38:59;;;;;;;16.00;7.50;;;;;;;7.51;100.00;99382.98;109112;1257;60056;-76
2024/02/21 08:41:26;;;;;;;13.60;7.20;;;;;;;7.61;100.00;99374.02;109091;1256;67755;-76
2024/02/21 08:43:54;;;;;;;12.30;6.60;;;;;;;7.72;100.00;99372.24;109118;1256;61043;-77
2024/02/21 08:46:21;;;;;;;13.60;7.20;;;;;;;7.83;100.00;99365.83;109092;1256;64189;-76
2024/02/21 08:48:47;;;;;;;11.30;6.30;;;;;;;7.96;100.00;99367.52;109099;1256;59856;-76
2024/02/21 08:51:14;;;;;;;14.10;6.90;;;;;;;8.06;100.00;99362.56;109122;1256;59840;-77
2024/02/21 08:53:41;;;;;;;10.10;5.80;;;;;;;8.14;100.00;99362.71;109124;1256;66449;-76
2024/02/21 08:56:07;;;;;;;13.40;6.40;;;;;;;8.18;100.00;99364.66;109159;1256;61067;-76
2024/02/21 08:58:36;;;;;;;13.30;5.50;;;;;;;8.24;100.00;99365.38;109088;1256;64175;-76
2024/02/21 09:01:09;;;;;;;13.20;6.60;;;;;;;8.29;100.00;99364.94;109102;1256;60108;-77
2024/02/21 09:03:37;;;;;;;11.30;6.20;;;;;;;8.36;100.00;99369.71;109132;1256;59717;-77
2024/02/21 09:06:05;;;;;;;11.90;5.90;;;;;;;8.43;100.00;99371.34;109111;1256;67838;-77
2024/02/21 09:08:33;;;;;;;14.90;6.10;;;;;;;8.49;100.00;99372.80;109126;1256;61136;-76
2024/02/21 09:11:00;;;;;;;12.40;6.00;;;;;;;8.56;100.00;99369.39;109117;1256;65196;-77
2024/02/21 09:13:27;;;;;;;10.50;5.80;;;;;;;8.66;100.00;99365.88;109111;1256;59816;-76
2024/02/21 09:15:53;;;;;;;12.00;5.30;;;;;;;8.73;100.00;99362.69;109008;1256;60047;-76
2024/02/21 09:18:20;;;;;;;9.30;5.30;;;;;;;8.78;100.00;99363.14;109113;1256;67535;-77
2024/02/21 09:20:47;;;;;;;12.30;5.40;;;;;;;8.82;100.00;99364.69;109146;1256;61153;-77
2024/02/21 09:23:14;;;;;;;12.00;5.30;;;;;;;8.84;100.00;99365.30;109115;1256;65457;-76
2024/02/21 09:25:41;;;;;;;10.80;5.20;;;;;;;8.90;100.00;99366.02;109111;1256;59927;-76
2024/02/21 09:28:07;;;;;;;13.50;5.60;;;;;;;8.98;100.00;99361.68;109121;1256;59827;-76
2024/02/21 09:30:34;;;;;;;10.10;5.80;;;;;;;9.09;100.00;99358.27;109125;1256;67824;-76
2024/02/21 09:33:02;;;;;;;13.70;6.20;;;;;;;9.11;100.00;99357.26;108964;1256;61232;-76
2024/02/21 09:35:28;;;;;;;11.40;5.80;;;;;;;9.13;100.00;99356.95;109117;1256;65092;-76
2024/02/21 09:37:55;;;;;;;7.90;5.40;;;;;;;9.24;100.00;99359.89;109128;1256;59835;-76
2024/02/21 09:40:22;;;;;;;10.50;5.00;;;;;;;9.40;100.00;99363.95;109115;1256;59852;-76
2024/02/21 09:42:49;;;;;;;10.50;4.90;;;;;;;9.50;100.00;99363.61;109095;1256;68094;-74
2024/02/21 09:45:24;;;;;;;8.90;4.90;;;;;;;9.49;100.00;99364.55;109127;1256;60494;-77
2024/02/21 09:48:29;;;;;;;12.20;5.20;;;;;;;9.49;100.00;99370.20;109119;1256;64728;-76
2024/02/21 09:50:58;;;;;;;11.80;5.70;;;;;;;9.52;100.00;99367.56;109102;1256;59809;-76
2024/02/21 09:53:25;;;;;;;10.00;6.70;;;;;;;9.55;100.00;99362.94;109116;1256;59776;-77
2024/02/21 09:55:52;;;;;;;11.10;5.00;;;;;;;9.61;100.00;99367.40;109142;1256;65934;-75
2024/02/21 09:58:19;;;;;;;9.30;5.70;;;;;;;9.67;100.00;99367.94;109115;1258;60218;-76
2024/02/21 10:00:45;;;;;;;9.30;4.60;;;;;;;9.70;100.00;99367.55;109082;1256;62807;-76
2024/02/21 10:03:12;;;;;;;9.20;5.10;;;;;;;9.69;100.00;99375.80;109101;1256;60059;-76
2024/02/21 10:05:47;;;;;;;8.70;4.90;;;;;;;9.68;100.00;99373.04;109124;1256;59926;-76
2024/02/21 10:08:14;;;;;;;8.80;4.60;;;;;;;9.68;100.00;99365.75;108942;1256;67504;-77
2024/02/21 10:10:45;;;;;;;8.90;5.20;;;;;;;9.75;100.00;99365.55;108997;1256;61004;-76
2024/02/21 10:13:28;;;;;;;9.90;4.70;;;;;;;9.92;100.00;99369.89;109125;1256;65181;-76
2024/02/21 10:16:03;;;;;;;12.10;5.20;;;;;;;10.07;100.00;99369.19;109077;1256;59784;-75
2024/02/21 10:18:30;;;;;;;10.70;5.00;;;;;;;10.13;100.00;99364.73;108990;1256;59936;-76
2024/02/21 10:21:07;;;;;;;10.10;5.20;;;;;;;10.23;100.00;99358.64;109116;1256;67970;-76
2024/02/21 10:23:44;;;;;;;8.90;4.30;;;;;;;10.27;100.00;99360.36;109121;1256;60064;-76
2024/02/21 10:26:11;;;;;;;7.90;4.00;;;;;;;10.17;100.00;99357.73;109102;1256;65068;-77
2024/02/21 10:28:41;;;;;;;14.00;4.90;;;;;;;10.02;100.00;99356.84;109121;1256;59786;-77
2024/02/21 10:31:10;;;;;;;9.10;4.40;;;;;;;9.90;100.00;99354.18;108944;1256;59806;-76
2024/02/21 10:33:39;;;;;;;9.30;4.80;;;;;;;9.89;100.00;99346.80;109110;1256;67808;-76
2024/02/21 10:36:10;;;;;;;9.20;4.70;;;;;;;9.98;100.00;99348.42;109130;1256;61104;-76
2024/02/21 10:38:38;;;;;;;8.70;4.20;;;;;;;10.07;100.00;99350.02;108916;1259;63690;-75
2024/02/21 10:41:06;;;;;;;12.40;4.60;;;;;;;10.04;100.00;99349.45;108929;1259;59926;-76
2024/02/21 10:43:39;;;;;;;9.50;4.20;;;;;;;10.00;100.00;99346.48;108937;1258;59921;-75
2024/02/21 10:46:08;;;;;;;6.60;4.10;;;;;;;9.99;100.00;99339.08;108923;1258;67885;-75
2024/02/21 10:48:47;;;;;;;8.70;4.40;;;;;;;10.05;100.00;99338.56;108942;1259;60160;-77
2024/02/21 10:51:22;;;;;;;7.80;4.30;;;;;;;10.11;100.00;99334.84;108936;1259;65153;-76
2024/02/21 10:54:03;;;;;;;8.30;4.30;;;;;;;10.20;100.00;99328.78;108912;1259;59853;-76
2024/02/21 10:56:36;;;;;;;10.30;5.40;;;;;;;10.27;100.00;99326.10;108955;1259;59881;-76
2024/02/21 10:59:04;;;;;;;10.40;4.60;;;;;;;10.35;100.00;99319.56;108957;1259;66954;-76
2024/02/21 11:01:32;;;;;;;15.90;4.90;;;;;;;10.42;100.00;99315.60;108939;1259;61305;-76
2024/02/21 11:04:07;;;;;;;10.40;4.10;;;;;;;10.46;100.00;99312.18;108932;1259;65258;-76
2024/02/21 11:06:39;;;;;;;10.20;4.30;;;;;;;10.51;100.00;99308.30;108840;1259;59941;-75
2024/02/21 11:09:08;;;;;;;8.80;4.20;;;;;;;10.53;100.00;99304.78;108946;1259;59719;-76
2024/02/21 11:11:39;;;;;;;7.50;3.80;;;;;;;10.55;100.00;99301.67;108952;1259;66757;-76
2024/02/21 11:14:18;;;;;;;9.60;4.50;;;;;;;10.58;100.00;99299.38;108949;1259;60117;-76